Time;durP1;ratioP1;P1;durP2;ratioP2;P2;SDS_P1;SDS_P2;PMS_P1;PMS_P2;Temp;Humidity;BMP_temperature;BMP_pressure;BME280_temperature;BME280_humidity;BME280_pressure;Samples;Min_cycle;Max_cycle;Signal;HPM_P1;HPM_P2
2023/01/06 00:02:20;;;;;;;9.33;5.93;;;;;;;;;;5029944;28;20180;-66
2023/01/06 00:04:45;;;;;;;5.97;5.37;;;;;;;;;;5030034;28;20210;-67
2023/01/06 00:07:11;;;;;;;7.00;5.10;;;;;;;;;;5028981;28;20175;-67
2023/01/06 00:09:37;;;;;;;8.20;6.27;;;;;;;;;;5031520;28;20417;-68
2023/01/06 00:12:03;;;;;;;7.03;5.73;;;;;;;;;;5027638;28;20270;-67
2023/01/06 00:14:28;;;;;;;11.57;5.73;;;;;;;;;;5034905;28;20501;-68
2023/01/06 00:16:54;;;;;;;5.13;4.63;;;;;;;;;;5036999;28;20552;-68
2023/01/06 00:19:19;;;;;;;7.23;5.83;;;;;;;;;;5032985;28;20207;-67
2023/01/06 00:21:45;;;;;;;6.10;5.27;;;;;;;;;;5028457;28;20183;-66
2023/01/06 00:24:10;;;;;;;5.37;4.87;;;;;;;;;;5034025;28;20180;-69
2023/01/06 00:26:36;;;;;;;7.47;5.90;;;;;;;;;;5036364;28;20289;-68
2023/01/06 00:29:03;;;;;;;5.23;4.70;;;;;;;;;;5030842;28;20231;-66
2023/01/06 00:31:28;;;;;;;15.93;5.73;;;;;;;;;;5029436;28;20425;-68
2023/01/06 00:33:57;;;;;;;5.97;5.30;;;;;;;;;;5024271;28;20504;-67
2023/01/06 00:36:23;;;;;;;5.37;4.73;;;;;;;;;;5028697;28;20175;-67
2023/01/06 00:38:49;;;;;;;5.00;4.50;;;;;;;;;;5034487;28;20533;-68
2023/01/06 00:44:00;;;;;;;5.50;5.00;;;;;;;;;;5030509;28;20790;-68
2023/01/06 00:46:30;;;;;;;5.23;4.83;;;;;;;;;;5030912;28;20430;-68
2023/01/06 00:48:56;;;;;;;5.03;4.63;;;;;;;;;;5031792;28;20454;-67
2023/01/06 00:51:22;;;;;;;5.83;5.33;;;;;;;;;;5040924;28;20426;-67
2023/01/06 00:53:47;;;;;;;6.20;5.03;;;;;;;;;;5038777;28;20979;-68
2023/01/06 00:56:13;;;;;;;5.60;4.80;;;;;;;;;;5032246;28;20191;-68
2023/01/06 00:58:38;;;;;;;15.63;5.33;;;;;;;;;;5030802;28;20290;-68
2023/01/06 01:01:05;;;;;;;12.10;5.00;;;;;;;;;;5028195;28;20372;-67
2023/01/06 01:03:32;;;;;;;5.50;5.00;;;;;;;;;;5023978;28;20241;-68
2023/01/06 01:06:00;;;;;;;5.67;4.83;;;;;;;;;;5046219;28;20530;-69
2023/01/06 01:08:25;;;;;;;6.43;4.93;;;;;;;;;;5026643;28;20442;-68
2023/01/06 01:10:51;;;;;;;4.93;4.43;;;;;;;;;;5031780;28;20430;-69
2023/01/06 01:13:17;;;;;;;5.33;4.80;;;;;;;;;;5035844;28;20175;-67
2023/01/06 01:15:42;;;;;;;4.73;4.33;;;;;;;;;;5031953;28;20430;-66
2023/01/06 01:18:07;;;;;;;12.30;5.53;;;;;;;;;;5029402;28;20255;-67
2023/01/06 01:20:33;;;;;;;9.73;4.60;;;;;;;;;;5028968;28;20167;-67
2023/01/06 01:22:58;;;;;;;5.87;4.47;;;;;;;;;;5029817;28;20178;-67
2023/01/06 01:25:23;;;;;;;5.03;4.50;;;;;;;;;;5029609;28;20566;-67
2023/01/06 01:27:49;;;;;;;6.50;5.03;;;;;;;;;;5029380;28;20192;-67
2023/01/06 01:30:14;;;;;;;6.97;4.60;;;;;;;;;;5029491;28;20203;-67
2023/01/06 01:32:40;;;;;;;6.47;5.37;;;;;;;;;;5028999;28;20175;-67
2023/01/06 01:35:05;;;;;;;5.03;4.53;;;;;;;;;;5029966;28;20175;-67
2023/01/06 01:37:31;;;;;;;6.83;4.20;;;;;;;;;;5029500;28;20188;-68
2023/01/06 01:39:56;;;;;;;8.90;4.40;;;;;;;;;;5029860;28;20274;-69
2023/01/06 01:42:22;;;;;;;6.10;4.97;;;;;;;;;;5028810;28;20167;-68
2023/01/06 01:45:00;;;;;;;6.70;5.07;;;;;;;;;;5029799;28;20702;-67
2023/01/06 01:47:42;;;;;;;6.97;5.17;;;;;;;;;;5029326;28;20167;-66
2023/01/06 01:50:16;;;;;;;8.47;4.60;;;;;;;;;;5029304;28;20554;-67
2023/01/06 01:52:44;;;;;;;7.50;4.57;;;;;;;;;;5041340;28;20771;-66
2023/01/06 01:55:10;;;;;;;12.10;5.27;;;;;;;;;;5029575;28;20979;-67
2023/01/06 01:57:47;;;;;;;8.17;4.67;;;;;;;;;;5030033;28;20481;-67
2023/01/06 02:00:13;;;;;;;7.33;4.80;;;;;;;;;;5030207;28;20439;-67
2023/01/06 02:02:40;;;;;;;13.10;5.37;;;;;;;;;;5029999;28;20438;-68
2023/01/06 02:05:06;;;;;;;5.20;4.70;;;;;;;;;;5030500;28;20791;-67
2023/01/06 02:07:32;;;;;;;6.17;5.57;;;;;;;;;;5043058;28;20426;-66
2023/01/06 02:10:14;;;;;;;5.30;4.80;;;;;;;;;;5034270;28;20426;-69
2023/01/06 02:12:41;;;;;;;4.83;4.40;;;;;;;;;;5034983;28;20254;-68
2023/01/06 02:15:33;;;;;;;6.47;5.60;;;;;;;;;;5033033;28;20604;-69
2023/01/06 02:18:30;;;;;;;6.20;5.20;;;;;;;;;;5034474;28;20544;-66
2023/01/06 02:20:58;;;;;;;7.20;5.10;;;;;;;;;;5030204;28;20446;-67
2023/01/06 02:23:36;;;;;;;5.27;4.50;;;;;;;;;;5038596;28;20444;-66
2023/01/06 02:26:32;;;;;;;5.10;4.10;;;;;;;;;;5039896;28;20436;-67
2023/01/06 02:29:29;;;;;;;5.17;4.67;;;;;;;;;;5035345;28;20453;-67
2023/01/06 02:32:05;;;;;;;7.60;5.40;;;;;;;;;;5029913;28;20441;-67
2023/01/06 02:34:38;;;;;;;6.50;5.70;;;;;;;;;;5023102;28;20863;-67
2023/01/06 02:37:41;;;;;;;5.73;5.13;;;;;;;;;;5033409;28;20429;-67
2023/01/06 02:40:16;;;;;;;8.97;5.57;;;;;;;;;;5031476;28;20929;-67
2023/01/06 02:43:09;;;;;;;7.70;6.97;;;;;;;;;;5035228;28;20524;-67
2023/01/06 02:45:35;;;;;;;7.10;5.60;;;;;;;;;;5038567;28;20509;-67
2023/01/06 02:48:05;;;;;;;6.80;6.10;;;;;;;;;;5032347;28;20536;-68
2023/01/06 02:51:03;;;;;;;7.30;5.67;;;;;;;;;;5045743;28;20183;-65
2023/01/06 02:54:01;;;;;;;9.43;5.57;;;;;;;;;;5030961;28;21116;-69
2023/01/06 02:56:32;;;;;;;6.30;5.70;;;;;;;;;;5033599;28;20452;-68
2023/01/06 02:59:26;;;;;;;6.00;5.40;;;;;;;;;;5036310;28;20885;-68
2023/01/06 03:01:53;;;;;;;6.63;6.03;;;;;;;;;;5026166;28;20874;-67
2023/01/06 03:04:42;;;;;;;7.60;6.70;;;;;;;;;;5041403;28;20426;-67
2023/01/06 03:07:08;;;;;;;10.93;6.70;;;;;;;;;;5037262;28;20444;-68
2023/01/06 03:09:36;;;;;;;7.30;5.70;;;;;;;;;;5035701;28;20471;-66
2023/01/06 03:12:08;;;;;;;7.20;5.97;;;;;;;;;;5028191;28;21055;-66
2023/01/06 03:14:48;;;;;;;7.50;6.67;;;;;;;;;;5032557;28;20448;-66
2023/01/06 03:17:13;;;;;;;7.50;6.80;;;;;;;;;;5031601;28;20446;-66
2023/01/06 03:19:39;;;;;;;16.37;8.20;;;;;;;;;;5032360;28;20433;-66
2023/01/06 03:22:07;;;;;;;14.60;8.00;;;;;;;;;;5031533;28;20650;-65
2023/01/06 03:24:34;;;;;;;10.03;5.87;;;;;;;;;;5032175;28;20171;-66
2023/01/06 03:27:00;;;;;;;10.13;6.43;;;;;;;;;;5032165;28;20402;-66
2023/01/06 03:29:25;;;;;;;6.50;5.90;;;;;;;;;;5031968;28;20834;-65
2023/01/06 03:32:15;;;;;;;7.27;6.00;;;;;;;;;;5030840;28;20174;-69
2023/01/06 03:35:11;;;;;;;6.97;6.30;;;;;;;;;;5032445;28;20175;-68
2023/01/06 03:38:09;;;;;;;9.60;5.90;;;;;;;;;;5031472;28;20449;-68
2023/01/06 03:40:43;;;;;;;20.37;9.07;;;;;;;;;;5030850;28;20410;-69
2023/01/06 03:43:25;;;;;;;10.70;6.10;;;;;;;;;;5031711;28;20406;-68
2023/01/06 03:46:45;;;;;;;29.93;7.43;;;;;;;;;;5032045;28;20444;-68
2023/01/06 03:49:21;;;;;;;13.40;7.20;;;;;;;;;;5013934;28;20450;-68
2023/01/06 03:51:46;;;;;;;8.07;6.17;;;;;;;;;;5028373;28;20447;-68
2023/01/06 03:54:34;;;;;;;7.80;6.13;;;;;;;;;;5031986;28;20438;-67
2023/01/06 03:57:10;;;;;;;8.30;6.20;;;;;;;;;;5031121;28;20234;-67
2023/01/06 03:59:41;;;;;;;8.40;6.80;;;;;;;;;;5037540;28;20442;-67
2023/01/06 04:02:07;;;;;;;9.70;7.70;;;;;;;;;;5034029;28;20422;-67
2023/01/06 04:04:32;;;;;;;11.53;8.70;;;;;;;;;;5034525;28;20751;-67
2023/01/06 04:06:58;;;;;;;10.50;8.33;;;;;;;;;;5037178;28;20457;-66
2023/01/06 04:09:23;;;;;;;10.40;8.20;;;;;;;;;;5043543;28;21467;-69
2023/01/06 04:14:33;;;;;;;18.00;12.73;;;;;;;;;;5038659;28;20190;-68
2023/01/06 04:16:58;;;;;;;18.20;13.20;;;;;;;;;;5032086;28;20431;-67
2023/01/06 04:19:24;;;;;;;19.77;13.53;;;;;;;;;;5031030;28;20597;-67
2023/01/06 04:21:49;;;;;;;22.10;12.60;;;;;;;;;;5015429;28;20270;-68
2023/01/06 04:24:15;;;;;;;17.30;12.47;;;;;;;;;;5037531;28;20189;-67
2023/01/06 04:26:40;;;;;;;14.93;12.63;;;;;;;;;;5031480;28;20671;-68
2023/01/06 04:29:05;;;;;;;15.93;10.50;;;;;;;;;;5038361;28;20199;-68
2023/01/06 04:31:31;;;;;;;16.40;10.73;;;;;;;;;;5030683;28;20171;-66
2023/01/06 04:33:56;;;;;;;15.30;11.20;;;;;;;;;;5037990;28;20210;-66
2023/01/06 04:36:22;;;;;;;15.13;11.80;;;;;;;;;;5043228;28;20194;-66
2023/01/06 04:38:47;;;;;;;20.30;12.47;;;;;;;;;;5038575;28;20445;-66
2023/01/06 04:41:12;;;;;;;17.53;12.40;;;;;;;;;;5031826;28;20215;-65
2023/01/06 04:43:38;;;;;;;17.23;11.77;;;;;;;;;;5032106;28;20242;-66
2023/01/06 04:46:04;;;;;;;21.30;14.43;;;;;;;;;;5029888;28;20255;-66
2023/01/06 04:48:29;;;;;;;21.33;14.30;;;;;;;;;;5046837;28;20214;-67
2023/01/06 04:51:06;;;;;;;24.10;14.90;;;;;;;;;;5032359;28;21240;-66
2023/01/06 04:53:39;;;;;;;22.40;13.40;;;;;;;;;;5029197;28;20175;-66
2023/01/06 04:56:10;;;;;;;24.00;16.40;;;;;;;;;;5034094;28;20433;-66
2023/01/06 04:58:36;;;;;;;25.40;15.40;;;;;;;;;;5030316;28;20498;-68
2023/01/06 05:01:08;;;;;;;24.07;18.10;;;;;;;;;;5029341;28;20460;-67
2023/01/06 05:03:34;;;;;;;32.10;17.77;;;;;;;;;;5029221;28;20915;-66
2023/01/06 05:06:08;;;;;;;21.13;15.57;;;;;;;;;;5042709;28;20463;-66
2023/01/06 05:08:35;;;;;;;26.73;18.60;;;;;;;;;;5032746;28;20488;-67
2023/01/06 05:11:03;;;;;;;29.03;16.50;;;;;;;;;;5036012;28;20421;-67
2023/01/06 05:13:30;;;;;;;24.67;16.23;;;;;;;;;;5030390;28;20513;-67
2023/01/06 05:15:56;;;;;;;30.77;16.73;;;;;;;;;;5029633;28;20409;-66
2023/01/06 05:18:21;;;;;;;27.73;16.67;;;;;;;;;;5030682;28;20971;-67
2023/01/06 05:20:51;;;;;;;22.47;14.90;;;;;;;;;;5029669;28;20203;-65
2023/01/06 05:23:16;;;;;;;21.60;13.13;;;;;;;;;;5030430;28;20171;-67
2023/01/06 05:25:42;;;;;;;26.30;16.40;;;;;;;;;;5030612;28;20878;-67
2023/01/06 05:28:07;;;;;;;31.23;19.27;;;;;;;;;;5029993;28;20581;-67
2023/01/06 05:30:33;;;;;;;29.80;17.20;;;;;;;;;;5035507;28;20801;-66
2023/01/06 05:32:58;;;;;;;26.67;16.73;;;;;;;;;;5028835;28;20662;-66
2023/01/06 05:35:23;;;;;;;31.20;16.90;;;;;;;;;;5042430;28;20182;-65
2023/01/06 05:37:49;;;;;;;32.10;16.87;;;;;;;;;;5032118;28;21072;-66
2023/01/06 05:40:14;;;;;;;27.27;16.63;;;;;;;;;;5028054;28;20179;-66
2023/01/06 05:42:40;;;;;;;28.30;16.10;;;;;;;;;;5028714;28;20179;-67
2023/01/06 05:45:06;;;;;;;32.73;14.37;;;;;;;;;;5029832;28;20175;-67
2023/01/06 05:47:31;;;;;;;25.30;14.20;;;;;;;;;;5028489;28;20195;-66
2023/01/06 05:49:56;;;;;;;24.30;12.73;;;;;;;;;;5035114;28;20429;-67
2023/01/06 05:52:22;;;;;;;23.73;13.23;;;;;;;;;;5032485;28;20591;-67
2023/01/06 05:54:47;;;;;;;20.30;12.43;;;;;;;;;;5032698;28;20807;-66
2023/01/06 05:57:13;;;;;;;17.13;11.20;;;;;;;;;;5033894;28;20181;-67
2023/01/06 05:59:38;;;;;;;21.37;13.40;;;;;;;;;;5029947;28;20281;-68
2023/01/06 06:02:04;;;;;;;18.53;12.00;;;;;;;;;;5037126;28;20682;-66
2023/01/06 06:04:29;;;;;;;21.03;12.73;;;;;;;;;;5046228;28;20175;-68
2023/01/06 06:06:54;;;;;;;22.33;16.07;;;;;;;;;;5030000;28;20172;-67
2023/01/06 06:09:20;;;;;;;22.03;12.60;;;;;;;;;;5029376;28;20830;-67
2023/01/06 06:11:45;;;;;;;26.27;14.13;;;;;;;;;;5029548;28;20238;-66
2023/01/06 06:14:10;;;;;;;23.20;15.07;;;;;;;;;;5030992;28;20176;-68
2023/01/06 06:16:36;;;;;;;22.53;15.07;;;;;;;;;;5024976;28;20191;-67
2023/01/06 06:19:01;;;;;;;27.57;16.23;;;;;;;;;;5027530;28;20966;-67
2023/01/06 06:21:29;;;;;;;25.93;13.43;;;;;;;;;;5030805;28;20559;-66
2023/01/06 06:23:56;;;;;;;25.27;14.77;;;;;;;;;;5024281;28;20180;-67
2023/01/06 06:26:22;;;;;;;23.83;14.60;;;;;;;;;;5036989;28;20433;-67
2023/01/06 06:28:48;;;;;;;28.43;16.37;;;;;;;;;;5034720;28;20944;-66
2023/01/06 06:31:19;;;;;;;30.47;17.03;;;;;;;;;;5030051;28;20478;-66
2023/01/06 06:33:45;;;;;;;23.33;15.33;;;;;;;;;;5024840;28;20184;-67
2023/01/06 06:36:14;;;;;;;26.13;15.87;;;;;;;;;;5040556;28;20904;-67
2023/01/06 06:38:43;;;;;;;41.70;17.30;;;;;;;;;;5033373;28;20493;-65
2023/01/06 06:41:09;;;;;;;31.63;17.33;;;;;;;;;;5028161;28;20476;-67
2023/01/06 06:43:35;;;;;;;31.27;17.43;;;;;;;;;;5033953;28;20919;-66
2023/01/06 06:46:00;;;;;;;26.53;14.60;;;;;;;;;;5029107;28;20222;-67
2023/01/06 06:48:28;;;;;;;34.00;16.23;;;;;;;;;;5037568;28;20191;-66
2023/01/06 06:50:58;;;;;;;28.50;15.40;;;;;;;;;;5038178;28;20221;-66
2023/01/06 06:53:24;;;;;;;29.70;14.93;;;;;;;;;;5036204;28;22110;-67
2023/01/06 06:55:50;;;;;;;37.67;14.23;;;;;;;;;;5037013;28;20430;-66
2023/01/06 06:58:15;;;;;;;28.33;13.97;;;;;;;;;;5035291;28;20207;-66
2023/01/06 07:00:40;;;;;;;68.97;14.80;;;;;;;;;;5030388;28;20214;-67
2023/01/06 07:03:06;;;;;;;23.13;8.63;;;;;;;;;;5038805;28;20271;-67
2023/01/06 07:05:31;;;;;;;27.00;9.60;;;;;;;;;;5039885;28;20591;-67
2023/01/06 07:07:57;;;;;;;13.80;8.30;;;;;;;;;;5033705;28;20230;-66
2023/01/06 07:10:22;;;;;;;12.93;8.37;;;;;;;;;;5033384;28;20602;-68
2023/01/06 07:12:47;;;;;;;12.83;9.03;;;;;;;;;;5026754;28;20179;-67
2023/01/06 07:15:13;;;;;;;10.30;6.50;;;;;;;;;;5030501;28;20527;-67
2023/01/06 07:17:40;;;;;;;17.83;8.60;;;;;;;;;;5026337;28;20208;-66
2023/01/06 07:20:06;;;;;;;11.07;7.70;;;;;;;;;;5022798;28;20180;-66
2023/01/06 07:22:35;;;;;;;19.70;9.07;;;;;;;;;;5031805;28;20444;-67
2023/01/06 07:25:00;;;;;;;15.43;8.43;;;;;;;;;;5028636;28;20520;-67
2023/01/06 07:27:26;;;;;;;24.80;9.40;;;;;;;;;;5032265;28;20509;-67
2023/01/06 07:29:51;;;;;;;13.33;8.40;;;;;;;;;;5032100;28;20267;-66
2023/01/06 07:32:16;;;;;;;10.07;6.93;;;;;;;;;;5031211;28;20197;-67
2023/01/06 07:34:42;;;;;;;38.73;10.40;;;;;;;;;;5030594;28;20691;-66
2023/01/06 07:37:07;;;;;;;50.07;11.57;;;;;;;;;;5029347;28;20591;-68
2023/01/06 07:39:33;;;;;;;30.73;9.60;;;;;;;;;;5031386;28;20199;-67
2023/01/06 07:41:58;;;;;;;84.53;14.90;;;;;;;;;;5031058;28;20171;-68
2023/01/06 07:44:24;;;;;;;23.60;9.27;;;;;;;;;;5032680;28;20180;-67
2023/01/06 07:46:49;;;;;;;42.23;11.20;;;;;;;;;;5031224;28;20274;-69
2023/01/06 07:49:15;;;;;;;18.77;9.70;;;;;;;;;;5029658;28;20191;-69
2023/01/06 07:51:40;;;;;;;13.00;7.70;;;;;;;;;;5029376;28;20543;-69
2023/01/06 07:54:06;;;;;;;10.77;7.30;;;;;;;;;;5035071;28;20171;-67
2023/01/06 07:56:31;;;;;;;11.67;7.60;;;;;;;;;;5033095;28;20176;-67
2023/01/06 07:58:57;;;;;;;13.97;9.00;;;;;;;;;;5033621;28;20234;-68
2023/01/06 08:01:22;;;;;;;10.50;7.90;;;;;;;;;;5027699;28;20180;-67
2023/01/06 08:03:47;;;;;;;15.93;8.53;;;;;;;;;;5041262;28;20563;-67
2023/01/06 08:06:13;;;;;;;12.67;8.50;;;;;;;;;;5028776;28;20176;-68
2023/01/06 08:08:40;;;;;;;13.40;8.43;;;;;;;;;;5031602;28;20266;-67
2023/01/06 08:11:06;;;;;;;14.90;9.70;;;;;;;;;;5033642;28;20301;-67
2023/01/06 08:13:32;;;;;;;18.73;9.37;;;;;;;;;;5029544;28;20481;-67
2023/01/06 08:16:02;;;;;;;17.10;9.80;;;;;;;;;;5045196;28;20437;-67
2023/01/06 08:18:27;;;;;;;13.87;9.90;;;;;;;;;;5045408;28;20474;-66
2023/01/06 08:20:59;;;;;;;14.93;9.53;;;;;;;;;;5038541;28;20430;-67
2023/01/06 08:23:25;;;;;;;19.37;10.27;;;;;;;;;;5032181;28;20279;-66
2023/01/06 08:25:50;;;;;;;19.23;11.03;;;;;;;;;;5038100;28;20524;-67
2023/01/06 08:28:15;;;;;;;29.30;12.17;;;;;;;;;;5038403;28;20203;-67
2023/01/06 08:30:41;;;;;;;74.47;15.03;;;;;;;;;;5037096;28;20631;-68
2023/01/06 08:33:07;;;;;;;28.20;10.20;;;;;;;;;;5033640;28;20193;-66
2023/01/06 08:35:32;;;;;;;21.03;9.57;;;;;;;;;;5040079;28;20426;-66
2023/01/06 08:37:57;;;;;;;18.50;8.80;;;;;;;;;;5037042;28;20211;-66
2023/01/06 08:40:23;;;;;;;18.87;10.13;;;;;;;;;;5029065;28;20184;-68
2023/01/06 08:42:48;;;;;;;19.97;9.97;;;;;;;;;;5023340;28;20182;-67
2023/01/06 08:45:14;;;;;;;19.70;9.90;;;;;;;;;;5034173;28;20271;-67
2023/01/06 08:47:39;;;;;;;15.80;8.33;;;;;;;;;;5037797;28;20534;-66
2023/01/06 08:50:05;;;;;;;15.90;8.23;;;;;;;;;;5038911;28;20744;-66
2023/01/06 08:52:30;;;;;;;14.40;10.30;;;;;;;;;;5025582;28;20508;-67
2023/01/06 08:54:58;;;;;;;14.33;9.50;;;;;;;;;;5035038;28;20183;-66
2023/01/06 08:57:24;;;;;;;24.77;9.07;;;;;;;;;;5036419;28;20166;-66
2023/01/06 08:59:49;;;;;;;78.03;16.17;;;;;;;;;;5038892;28;20783;-68
2023/01/06 09:02:14;;;;;;;17.30;8.60;;;;;;;;;;5027909;28;20182;-68
2023/01/06 09:04:40;;;;;;;45.70;12.30;;;;;;;;;;5031393;28;20632;-66
2023/01/06 09:07:05;;;;;;;13.00;8.80;;;;;;;;;;5027979;28;20182;-67
2023/01/06 09:09:31;;;;;;;14.50;10.47;;;;;;;;;;5027905;28;20683;-70
2023/01/06 09:11:56;;;;;;;14.93;9.80;;;;;;;;;;5043734;28;20507;-68
2023/01/06 09:14:22;;;;;;;12.63;9.40;;;;;;;;;;5031093;28;20172;-67
2023/01/06 09:16:47;;;;;;;15.13;8.57;;;;;;;;;;5028053;28;20233;-67
2023/01/06 09:19:15;;;;;;;13.23;8.63;;;;;;;;;;5028902;28;20207;-67
2023/01/06 09:21:41;;;;;;;12.47;7.90;;;;;;;;;;5028220;28;20203;-68
2023/01/06 09:24:11;;;;;;;14.03;8.63;;;;;;;;;;5029391;28;20830;-70
2023/01/06 09:26:37;;;;;;;12.23;9.63;;;;;;;;;;5029444;28;21117;-69
2023/01/06 09:29:02;;;;;;;22.93;8.53;;;;;;;;;;5027888;28;20450;-67
2023/01/06 09:31:28;;;;;;;16.60;8.73;;;;;;;;;;5029173;28;20207;-69
2023/01/06 09:33:54;;;;;;;39.70;10.80;;;;;;;;;;5040011;23;20215;-71
2023/01/06 09:36:20;;;;;;;18.73;9.03;;;;;;;;;;5026568;28;20977;-72
2023/01/06 09:38:45;;;;;;;65.83;14.73;;;;;;;;;;5031937;28;20199;-68
2023/01/06 09:41:38;;;;;;;23.07;11.57;;;;;;;;;;5031696;28;20183;-71
2023/01/06 09:44:13;;;;;;;24.67;10.33;;;;;;;;;;5029169;28;20318;-71
2023/01/06 09:46:43;;;;;;;16.90;10.50;;;;;;;;;;5027664;28;20495;-71
2023/01/06 09:49:33;;;;;;;19.73;10.50;;;;;;;;;;5028982;28;20438;-72
2023/01/06 09:52:08;;;;;;;24.10;11.53;;;;;;;;;;5014854;28;20441;-71
2023/01/06 09:54:41;;;;;;;14.47;10.10;;;;;;;;;;5021843;28;20453;-72
2023/01/06 09:57:15;;;;;;;13.33;9.17;;;;;;;;;;5024246;28;20520;-71
2023/01/06 09:59:48;;;;;;;15.77;10.27;;;;;;;;;;5006193;28;20445;-71
2023/01/06 10:02:31;;;;;;;22.73;11.43;;;;;;;;;;5019435;28;20508;-72
2023/01/06 10:04:57;;;;;;;17.00;10.77;;;;;;;;;;5028276;28;20489;-72
2023/01/06 10:07:44;;;;;;;49.50;15.77;;;;;;;;;;5027261;28;20505;-71
2023/01/06 10:10:28;;;;;;;45.57;13.20;;;;;;;;;;5024530;28;20262;-72
2023/01/06 10:13:09;;;;;;;16.40;10.40;;;;;;;;;;5025965;28;20517;-71
2023/01/06 10:15:42;;;;;;;34.50;13.63;;;;;;;;;;5029419;28;20437;-72
2023/01/06 10:18:26;;;;;;;30.87;14.30;;;;;;;;;;5027616;28;20477;-72
2023/01/06 10:21:12;;;;;;;44.87;14.50;;;;;;;;;;5026678;28;20529;-72
2023/01/06 10:23:42;;;;;;;25.03;12.50;;;;;;;;;;5021435;28;20453;-72
2023/01/06 10:26:15;;;;;;;14.20;11.33;;;;;;;;;;5030003;28;20821;-72
2023/01/06 10:28:51;;;;;;;15.07;9.20;;;;;;;;;;5033351;28;20430;-71
2023/01/06 10:31:21;;;;;;;12.90;9.60;;;;;;;;;;5029976;28;20931;-72
2023/01/06 10:33:50;;;;;;;41.57;12.20;;;;;;;;;;5029544;28;20552;-71
2023/01/06 10:36:19;;;;;;;26.83;8.10;;;;;;;;;;5032644;28;20505;-72
2023/01/06 10:38:54;;;;;;;16.40;6.10;;;;;;;;;;5032765;28;20468;-71
2023/01/06 10:41:42;;;;;;;12.47;5.70;;;;;;;;;;5031526;28;20777;-72
2023/01/06 10:44:12;;;;;;;9.43;6.03;;;;;;;;;;5022848;28;20515;-72
2023/01/06 10:46:38;;;;;;;9.37;5.63;;;;;;;;;;5028619;28;20442;-72
2023/01/06 10:49:05;;;;;;;7.97;5.60;;;;;;;;;;5026978;28;20441;-70
2023/01/06 10:51:37;;;;;;;8.37;5.80;;;;;;;;;;5012336;28;20200;-72
2023/01/06 10:54:20;;;;;;;26.60;7.17;;;;;;;;;;5032081;28;20494;-72
2023/01/06 10:56:52;;;;;;;12.83;6.10;;;;;;;;;;5032135;28;20417;-73
2023/01/06 10:59:18;;;;;;;17.60;7.40;;;;;;;;;;5031739;28;20505;-73
2023/01/06 11:01:55;;;;;;;47.30;11.50;;;;;;;;;;5030497;28;20449;-72
2023/01/06 11:04:22;;;;;;;25.90;8.87;;;;;;;;;;5031763;28;20195;-71
2023/01/06 11:06:49;;;;;;;20.30;7.63;;;;;;;;;;5030735;28;20444;-71
2023/01/06 11:09:41;;;;;;;14.03;6.73;;;;;;;;;;5030615;28;20571;-72
2023/01/06 11:12:26;;;;;;;8.83;6.10;;;;;;;;;;5013110;28;20454;-73
2023/01/06 11:14:57;;;;;;;8.67;5.40;;;;;;;;;;5025941;28;20457;-73
2023/01/06 11:17:23;;;;;;;26.20;6.07;;;;;;;;;;5013664;28;20446;-72
2023/01/06 11:20:08;;;;;;;14.70;4.50;;;;;;;;;;5030586;28;20530;-72
2023/01/06 11:22:39;;;;;;;12.53;4.90;;;;;;;;;;5030147;28;20496;-72
2023/01/06 11:25:34;;;;;;;13.27;5.03;;;;;;;;;;5032062;28;20770;-72
2023/01/06 11:28:08;;;;;;;16.03;4.77;;;;;;;;;;5017560;28;20553;-72
2023/01/06 11:30:39;;;;;;;26.13;5.50;;;;;;;;;;5025875;28;20438;-71
2023/01/06 11:33:14;;;;;;;46.63;11.93;;;;;;;;;;5031035;28;20465;-71
2023/01/06 11:35:40;;;;;;;107.23;14.50;;;;;;;;;;5030803;28;20444;-73
2023/01/06 11:38:12;;;;;;;49.57;10.20;;;;;;;;;;5029356;28;20481;-72
2023/01/06 11:40:38;;;;;;;14.53;6.40;;;;;;;;;;5030234;28;20437;-72
2023/01/06 11:43:21;;;;;;;22.70;7.97;;;;;;;;;;5031564;28;20462;-71
2023/01/06 11:46:07;;;;;;;11.13;6.13;;;;;;;;;;5027941;28;20183;-70
2023/01/06 11:48:35;;;;;;;16.27;9.03;;;;;;;;;;5029881;28;20822;-70
2023/01/06 11:51:04;;;;;;;14.33;8.03;;;;;;;;;;5029594;28;20484;-70
2023/01/06 11:53:30;;;;;;;11.00;6.90;;;;;;;;;;5031818;28;20464;-71
2023/01/06 11:56:01;;;;;;;10.27;7.10;;;;;;;;;;5032529;28;20430;-71
2023/01/06 11:58:50;;;;;;;9.20;7.87;;;;;;;;;;5032065;28;20195;-72
2023/01/06 12:01:40;;;;;;;8.87;7.63;;;;;;;;;;5024615;28;20577;-72
2023/01/06 12:04:21;;;;;;;8.27;7.03;;;;;;;;;;5029363;28;20449;-71
2023/01/06 12:06:50;;;;;;;8.37;7.47;;;;;;;;;;5022967;28;20499;-72
2023/01/06 12:09:38;;;;;;;33.90;12.00;;;;;;;;;;5028640;28;20517;-73
2023/01/06 12:12:06;;;;;;;12.90;8.03;;;;;;;;;;5028262;28;20461;-72
2023/01/06 12:14:37;;;;;;;9.23;6.87;;;;;;;;;;5029996;28;20500;-71
2023/01/06 12:17:08;;;;;;;11.87;7.60;;;;;;;;;;5028298;28;20434;-72
2023/01/06 12:19:52;;;;;;;8.50;7.70;;;;;;;;;;5011597;28;20466;-72
2023/01/06 12:22:37;;;;;;;9.10;7.50;;;;;;;;;;5028917;28;20432;-69
2023/01/06 12:25:05;;;;;;;17.17;8.57;;;;;;;;;;5030912;28;20433;-73
2023/01/06 12:27:38;;;;;;;7.73;6.37;;;;;;;;;;5028187;28;20444;-71
2023/01/06 12:30:12;;;;;;;9.53;5.57;;;;;;;;;;5025838;28;20429;-71
2023/01/06 12:32:42;;;;;;;6.33;5.73;;;;;;;;;;5025489;28;20926;-72
2023/01/06 12:35:14;;;;;;;7.17;6.47;;;;;;;;;;5028867;28;20525;-72
2023/01/06 12:38:00;;;;;;;6.50;5.90;;;;;;;;;;5026179;28;20469;-71
2023/01/06 12:40:47;;;;;;;10.47;5.83;;;;;;;;;;5029847;28;20512;-68
2023/01/06 12:43:15;;;;;;;17.27;7.70;;;;;;;;;;5025804;28;20486;-71
2023/01/06 12:46:01;;;;;;;7.20;5.30;;;;;;;;;;5023196;28;20441;-73
2023/01/06 12:48:37;;;;;;;15.53;6.10;;;;;;;;;;5022315;28;20438;-73
2023/01/06 12:51:13;;;;;;;12.53;6.27;;;;;;;;;;5027523;28;20440;-70
2023/01/06 12:53:44;;;;;;;13.77;5.80;;;;;;;;;;5018016;28;20454;-71
2023/01/06 12:56:46;;;;;;;173.80;25.00;;;;;;;;;;5012072;28;20433;-72
2023/01/06 12:59:39;;;;;;;7.03;6.13;;;;;;;;;;5016812;28;20468;-72
2023/01/06 13:02:32;;;;;;;18.03;7.93;;;;;;;;;;5020954;28;20806;-70
2023/01/06 13:05:10;;;;;;;69.73;15.70;;;;;;;;;;5029011;28;20556;-73
2023/01/06 13:07:52;;;;;;;82.90;14.40;;;;;;;;;;5025084;28;20425;-71
2023/01/06 13:10:20;;;;;;;29.40;8.80;;;;;;;;;;5031178;28;20459;-72
2023/01/06 13:13:14;;;;;;;8.20;4.60;;;;;;;;;;5004322;28;20446;-73
2023/01/06 13:15:43;;;;;;;13.67;5.40;;;;;;;;;;5017449;28;20565;-72
2023/01/06 13:18:23;;;;;;;29.10;5.70;;;;;;;;;;5011071;28;20459;-70
2023/01/06 13:20:58;;;;;;;12.80;3.93;;;;;;;;;;5010621;28;20419;-70
2023/01/06 13:23:55;;;;;;;10.40;4.20;;;;;;;;;;5025199;28;20470;-72
2023/01/06 13:26:27;;;;;;;3.50;3.10;;;;;;;;;;5011552;28;20711;-72
2023/01/06 13:29:19;;;;;;;4.00;3.60;;;;;;;;;;5010604;28;20404;-69
2023/01/06 13:32:10;;;;;;;4.20;2.80;;;;;;;;;;5014013;28;20442;-71
2023/01/06 13:35:06;;;;;;;6.13;3.90;;;;;;;;;;5019191;28;20496;-71
2023/01/06 13:37:39;;;;;;;10.67;3.77;;;;;;;;;;5014875;28;20410;-69
2023/01/06 13:40:16;;;;;;;15.93;5.10;;;;;;;;;;5022196;28;20422;-69
2023/01/06 13:42:54;;;;;;;16.50;5.60;;;;;;;;;;5028205;28;20437;-70
2023/01/06 13:45:25;;;;;;;16.33;5.00;;;;;;;;;;5019420;28;20445;-70
2023/01/06 13:47:51;;;;;;;4.60;3.40;;;;;;;;;;5029089;28;20731;-70
2023/01/06 13:50:19;;;;;;;8.20;3.00;;;;;;;;;;5026683;28;20402;-72
2023/01/06 13:52:45;;;;;;;4.40;3.00;;;;;;;;;;5010391;28;20191;-74
2023/01/06 13:55:28;;;;;;;2.77;2.50;;;;;;;;;;5020273;28;20459;-72
2023/01/06 13:57:54;;;;;;;11.60;3.60;;;;;;;;;;5025781;28;20540;-72
2023/01/06 14:00:25;;;;;;;6.30;2.97;;;;;;;;;;5021931;28;20547;-75
2023/01/06 14:02:51;;;;;;;5.10;2.70;;;;;;;;;;5027240;28;20175;-70
2023/01/06 14:05:22;;;;;;;42.90;5.30;;;;;;;;;;5028649;28;20763;-71
2023/01/06 14:07:52;;;;;;;6.23;2.60;;;;;;;;;;5023906;28;20258;-70
2023/01/06 14:10:36;;;;;;;12.50;2.83;;;;;;;;;;5029813;28;20437;-70
2023/01/06 14:13:04;;;;;;;5.07;2.93;;;;;;;;;;5020492;28;20450;-75
2023/01/06 14:15:32;;;;;;;4.57;2.73;;;;;;;;;;5024640;28;20438;-69
2023/01/06 14:17:59;;;;;;;12.03;3.33;;;;;;;;;;5030305;28;20462;-70
2023/01/06 14:20:30;;;;;;;5.97;2.80;;;;;;;;;;5024383;28;20465;-72
2023/01/06 14:23:01;;;;;;;5.83;2.67;;;;;;;;;;5017343;28;20429;-73
2023/01/06 14:25:28;;;;;;;62.53;9.83;;;;;;;;;;5022211;28;20937;-70
2023/01/06 14:27:53;;;;;;;14.50;3.80;;;;;;;;;;5036786;28;20450;-71
2023/01/06 14:30:22;;;;;;;4.20;2.77;;;;;;;;;;5032883;28;20437;-71
2023/01/06 14:32:47;;;;;;;47.80;7.87;;;;;;;;;;5022407;28;20346;-70
2023/01/06 14:35:15;;;;;;;16.13;5.93;;;;;;;;;;5020338;28;20514;-69
2023/01/06 14:37:53;;;;;;;16.00;4.70;;;;;;;;;;5016919;28;20220;-70
2023/01/06 14:40:24;;;;;;;5.57;3.20;;;;;;;;;;5022918;28;20417;-69
2023/01/06 14:42:50;;;;;;;17.27;4.40;;;;;;;;;;5028889;28;20433;-72
2023/01/06 14:45:25;;;;;;;46.67;6.90;;;;;;;;;;5027450;28;21135;-71
2023/01/06 14:48:00;;;;;;;19.77;5.00;;;;;;;;;;5029982;28;20409;-75
2023/01/06 14:50:29;;;;;;;18.10;4.80;;;;;;;;;;5030419;28;20408;-71
2023/01/06 14:53:01;;;;;;;22.37;5.67;;;;;;;;;;5028981;28;21001;-73
2023/01/06 14:55:30;;;;;;;19.83;4.90;;;;;;;;;;5022591;28;20413;-73
2023/01/06 14:57:56;;;;;;;37.90;8.37;;;;;;;;;;5024991;28;20898;-70
2023/01/06 15:00:28;;;;;;;18.70;5.00;;;;;;;;;;5028586;28;20430;-69